December 9, 2019

Incident at ROUYN-NORANDA QC (CYUY)

The pilot of a Jazz de Havilland DHC-8-301 (C-GVON/JZA8767) from Val-dOr, QC (CYVO) to Rouyn-Noranda, QC (CYUY) between SALCN and BETOK reported conducting a pull-up for an unknown reason. CYUY SPECI 091638Z 07007KT 4SM -FZDZ -SN OVC009 M14/M16 A2977.

January 17, 2016

Incident at STONY RAPIDS SK (CYSF) (Security acts, Incursion - runway - vehicle)

Upon landing on Runway 06, the pilot of a Transwest Air Limited SAAB 340B (C-GTJX/TW800), from Fond-du-Lac, SK (CZFD) to Stony Rapids, SK (CYSF), noticed 2 snowmobiles on threshold of Runway 24. After watching the aircraft land, the snowmobilers proceeded northward. The Royal Canadian Mounted Police (RCMP) was advised. SPECI CYSF 172105Z 28002KT 9SM OVC011 M23/M25 A3026 RMK SLP280=METAR CYSF 172100Z 29004KT 9SM OVC009 M23/M25 A3026 RMK SLP282=CYSF RSC 06/24 100 PERCENT COMPACTED SN. 1601171300

June 9, 2011

Incident at VAL-D'OR QC (CYVO) (ATM - weather observation systems)

Update #1: According to information from the ANS and Airspace Division: The information from the automatic station was as follows: CYVO 090300Z AUTO 01010KT 9SM OVC008 18/16 A2969 RMK SLP057. CYVO 090253Z AUTO 36009KT 9SM OVC009 19/16 A2969. CYVO 090200Z 36012KT 15SM -SHRA SCT013 BKN030 BKN088 20/16 A2965 RMK SC3SC2AC1 LAST STFD OBS/NEXT 091000 UTC SLP040. CYVO 090118Z 35017G24KT 10SM -SHRA BKN022 BKN034 OVC094 RMK SC5SC2AC2 WSHFT 0115. Moments after the pilot?s report, the station was reporting a ceiling of 900 ft. Though the elevation of CYVO was 1 170 ft ASL, the station was measuring a ceiling of 2 000 ft ASL. The station was operating according to documented parameters.
The pilot of PRO106M, an aircraft operated by Propair that was on a MEDEVAC flight, reported a ceiling of 1 900 ft ASL on approach to Val d'Or (CYVO) even though the automated weather observation system (AWOS) was reporting the following weather conditions: METAR CYVO 090200Z 36012KT 15SM -SHRA SCT013 BKN030 BKN088 20/16 A2965 RMKSC3SC2AC1 LAST STFD OBS/NXT 091000UTC SLP040.

April 29, 2010

Incident at LETHBRIDGE AB (CYQL) (Weather - precipitation, ATM - NAVAIDS/radar, ATM - ILS irregularity)

Lethbridge FSS reported that the localizer for the Runway 05 ILS failed at 0215z and was NOTAM'd u/s until 10/04/29/2359z. METAR CYQL 290400Z 30017KT 1SM -SHSN OVC007 00/M00 A2921 RMK SC8 WET SN /S01/ LAST STFD OBS/NXT 291200UTC At 0420z, FSS advised that the glide path for the ILS failed, as well as the VOR 115.7 and both were NOTAM'd u/s until 10/04/29/2359z. METAR CYQL 290200Z 29023G28KT 1SM -SHSN OVC009 01/M00 A2921 RMK SN4SC4 RERA WET SNOW SLP910

January 3, 2010

Incident at IQALUIT NU (CYFB)

MPE 603, a Canadian North DHC-8, was inbound to Iqaluit and the crew received an advisory for an approach to Runway 17 at 1720z. At 1732z, they reported in the missed approach. MPE 603 subsequently landed on Runway 35 about 10 minutes later at 1743z with no further incident. METAR CYFB 031700Z 25005KT 2 1/2SM -SN -FZDZ BR OVC009 M08/M09 A3064 RMK FG3SF4 SLP379=

April 16, 2010

Incident at DEER LAKE NL (CYDF)

EV7633, on approach to Runway 07, advised that it was executing a missed approach. The flight then requested an ILS approach to Runway 25. The flight was re-cleared for Runway 25 and landed without incident. Nil TSB METAR CYDF 162300Z 05015G22KT 3 -DZ BR OVC009 02/01 A2978 ST10= METAR CYDF 170000Z 06010G15KT 3 -DZ BR OVC006 02/01 A2980 ST10=

July 15, 2009

Incident at KUUJJUAQ QC (CYVP) (Aerodrome - visual aids, Aerodrome - power failure, ATM - NAVAIDS/radar)

Une panne de courant s'est produite à Kuujjuaq (CYVP) à 1519Z, alors qu'AIE516, un Beech King Air d'Air Inuit était en finale pour la piste 13 et AIE621, un Twin Otter d'Air Inuit, en finale pour la piste 25 effectuait une approche indirecte pour la piste 31. L'équipage de AIE621 a mentionné avoir perdu momentanément le signal du radiophare omnidirectionnel à très haute fréquence (VOR). Les transmissions ont été effectuées par la radio de secours. Les lumières de piste ont été éteintes durant un bref moment, le temps de démarrer la génératrice. L'électricité est revenue à 1548Z. (METAR CYVP 151500Z 35003KT 12SM OVC009 09/07 A2984 RMK SF8 CIG RAG SLP105).*** ** *** A power failure occurred at Kuujjuaq (CYVP) at 1519Z, while Air Inuit Beech King Air AIE516 was on its final approach to runway 13 and Air Inuit Twin Otter AIE621, in final for runway 25, was in a circling approach pattern for runway 31. AIE621?s crew reported a temporary loss of the VHF omnidirectional range (VOR) signal. Communications were handled using the emergency radio. The runway lights were turned off for the short period required to start the generator. Power was restored at 1548Z.(METAR CYVP 151500Z 35003KT 12SM OVC009 09/07 A2984 RMK SF8 CIG RAG SLP105).

November 17, 2009

Incident at DAWSON CREEK BC (CYDQ)

The Government of Canada RCMP Pilatus PC12, IFR Abbotsford to Dawson Creek (CYDQ), conducted a missed approach at CYDQ at 0240Z. CYDQ Weather 170300Z AUTO 34002KT 5/8SM -SN VV008 M02/M03 A2939 RMK SLP985 SPECI 170238Z AUTO 02003KT 3/4SM -SN OVC009 M02/M03 A2938 RMK SLP983 VIS VRB 3/4-3 SPECI 170224Z AUTO 07003KT 21/2 SM -SN OVC011 M02/M03 A2938 RMK SLP983 VIS VRB 11/2-3 SPECI 170220Z AUTO 06003KT 5SM -SN OVC011 M02/M03 A2938 RMK SLP 984 CYDQ 170200Z AUTO 04003KT 9SM -SNOVC011 M02/M03 A2939 RMK PRESFR SLP985

June 18, 2008

Incident at Lac Ledden

A privately-owned Cessna 180 was VFR from Lac Ledden to La Grande-4 (CYAH). Because of weather conditions, the pilot returned to land on a lake located five nautical miles north of Chibougamau/Chapais (CYMT). The last contact with the pilot was while he was on final for the lake. METAR CYMT 181200Z 09055KT 15SM OVC009 12/11 A2967 RMK CF8 CIG VRB 6-11 SLP053. METAR CYMT 181300Z CCA 10006KT 12SM OVC009 13/11 A2968 RMK SF8 CIG VRB 6-11 SLP055. ***** *** **** Un Cessna 180 de propriété privée effectuait un vol selon les règles de vol à vue (VFR) depuis le Lac Ledden à destination de La Grande-4 (CYAH). En raison des conditions météorologiques, le pilote est revenu se poser sur un lac situé à cinq milles nautiques au nord de l'aéroport de Chibougamau/Chapais (CYMT). Le dernier contact avec le pilote a eu lieu alors que ce dernier était en finale pour ce lac. METAR CYMT 181200Z 09055KT 15SM OVC009 12/11 A2967 RMK CF8 CIG VRB 6-11 SLP053. METAR CYMT 181300Z CCA 10006KT 12SM OVC009 13/11 A2968 RMK SF8 CIG VRB 6-11 SLP055.

September 30, 2008

Incident at TORONTO / BILLY BISHOP TORONTO CITY AIRPORT ON (CYTZ)

The Porter Airlines Inc. de Havilland DHC-8-402 aircraft (operating as flight POE218) was on a scheduled IFR flight from Ottawa (M-CIA) (CYOW) to Toronto (City Centre) Airport (CYTZ). The aircraft executed missed approach. WX:sct002 ovc009 vis 1 1/4 RA.

October 8, 2007

Incident at BRANDON MUNI MB (CYBR)

Brandon FSS observed an unknown aircraft 1/2 mile final to Runway 26. The private Cessna 206 then landed and the pilot reported exiting the runway. The pilot advised that he had equipment problems. The weather was below VFR conditions at the time and Special VFR authorization was not requested by the pilot. 1700Z METAR 33006KT 9 SM -RA OVC009 05/04 A2987 CIG RAG.

August 25, 2007

Incident at IQALUIT NU (CYFB) (Weather - visibility, Overshoot/missed approach)

At 0206z, RSCU 313, a Canadian Forces C-130 Hercules, did a missed approach to Runway 17 at Iqaluit due to weather. The aircraft landed about 30 minutes later at 0232z. METAR CYFB 250200Z 14018KT 3M -RA BR OVC006 06/06 A2973 RMK ST8 SLP068 At 0440z, WGT 7037, a Dassault Falcon 900, also conducted a missed approach to Runway 17. WGT 7037 landed at CYFB at 0451z without further incident. METAR CYFB 250400 15017G24KT 6SM -RA BR OVC009 06/06 A2973 RMK SF8 SLP069

February 3, 2003

Incident at LA RONGE (BARBER FIELD) SK (CYVC) (ATS operating irregularity)

The crew of C-FSCA, a DHC-6 Twin Otter, departed La Ronge without SVFR authorization when weather was METAR 06007KTS 15SM-SN OVC009. The FSS Specialist forgot to pass weather during the airport departure advisory while he busy removing a vehicle from the runway. No other aircraft or vehicles were involved. The FSS Manager will conduct an internal investigation into the incident.

April 13, 2002

Incident at TORONTO / BILLY BISHOP TORONTO CITY AIRPORT ON (CYTZ)

Toronto East Satelite Sector was in contact with C-FRQP, inbound to Buttonville (CYKZ) from the South. Buttonville weather was below SVFR limits, so landing SVFR was coordinated at Toronto City Cetnre (CYTZ). On contact with Toronto City Centre Tower, C-FRQP advised in IMC conditions, unable to locate the airport. Aircraft was switched back to the ACC frequency. Pilot unable IFR, so given emergecy RADAR assistance. Eventually pilot able to see water, but not the shoreline. Aircraft then lead to Toronto City Centre where he landed at 1726Z. METAR CYTZ 131700Z AUTO 35005KT 3 1/2SM -RA OVC010 11/10 A3012 RMK PCPN 0.5MM PAST HR SLP203= SPECI CYTZ 131704Z AUTO 36006KT 3SM -RA OVC009 11/10 A3012=. Aircraft was not on a flightplan.

November 9, 2000

Incident at CALGARY INTL AB (CYYC) (Overshoot/missed approach, Aerodrome - power failure, ATM - NAVAIDS/radar)

UPDATE ANS and Airspace advised that the party responsible for the digging operation has been interviewed and re-familiarized with cable locations.
At 2249Z, Edmonton ACC was advised that a power line had been cut during trenching at Calgary International Airport. Initial indications showed that ILS Runways 34 and 16 were on battery backup. ILS for Runway 28 was serviceable. Field electrical personnel were on site. At 2300Z, Navigation Aids technical staff were called out. At 0000Z, battery power was stable. At 0030Z, discussions with SM/DSC/TOC/YC resulted in a request to have Calgary install AC generators to re-charge the batteries for both Glide Path and Localizer. At 0102Z, the ILS Runway 34 failed as technicians attempted to hook up the generators. An additional technician was then called out to assist. Airport personnel were working to splice the power cables. Five aircraft on vectors for Runway 34 were overshot and vectored for Runway 28. At 0159Z the backup generators connected and ILSfor Runway 34 was back in service. At 0500Z, ATC was informed that commercial power was expected to be restored to ILS sites at 0600Z. 2200Z weather - 36009KT 1SM -SN DRSN OVC009 2220Z Special Weather - 35008KT 3/4SM -SN OVC007 0000Z weather - 03006KT 5/8SM-SN OVC007

November 19, 1998

Incident at DRYDEN REGIONAL ON (CYHD) (Aerodrome - visual aids, Aerodrome - operations)

The aircraft (C-FAPP, operating as VAL793) was on an IFR flight from Thunder Bay Airport (CYQT) to Dryden Regional Airport (CYHD). The flight crew reported at the Dryden beacon inbound on the ILS runway 11 approach. Approximately one (1) minute later, the operator of a ground vehicle (ST20) advised that the runway edge lights were not on. The lighting control panel indicated that the lights were on strength 3. The flight crew were advised and the lights were re-selected to strength 2. ST20 advised that the edge lights were now on. VAL793 landed safely and reported off the runway at 2224Z. Ops. impact -- unknown. METAR CYHD 182200Z 06012KT 3SM -SN DRSN OVC009 M07/M08 A2994 SPECI CYHD 182205Z 06012KT 2SM -SN DRSN OVC009 RMK SN3SF5 SPECI CYHD 182217Z 06013KT 1SM -SN DRSN VV007 RMK SN8 SPECI CYHD 182223Z 06014KT 5/8 -SN DRSN VV003 RMK SN8 VSBY 1/2-3/4 O.P.I.: PAD